Kokoda Airport

PG-KKD · Northern Province, Papouasie-Nouvelle-Guinée

METAR anciennes PG-KKD · Kokoda Airport

Tu vois ci-dessous les METAR des derniers jours. Sélectionne une année pour parcourir les METAR plus anciens, à partir de l'année 2007.

30 novembre 2022

Temps Code Temps Temp. Vue Base cloud Vent METAR/SPECI
03:00
V
25 °C 10 km+ - 350° 350° 10 kt METAR AYPY 291700Z 35010KT 9999 SCT050 25/23 Q1006
03:00
V
25 °C 10 km+ - 350° 350° 10 kt METAR AYPY 291700Z 35010KT 9999 SCT050 25/23 Q1006
02:00
V
25 °C 10 km+ - 350° 350° 10 kt METAR AYPY 291600Z 35010KT 9999 SCT050 25/23 Q1006
01:00
V
25 °C 10 km+ - 350° 350° 7 kt METAR AYPY 291500Z 35007KT 9999 SCT050 25/23 Q1007
00:00
V
26 °C 10 km+ 10.000 ft Var Var 3 kt METAR AYPY 291400Z VRB03KT 9999 SCT030 BKN100 26/24 Q1008

29 novembre 2022

Temps Code Temps Temp. Vue Base cloud Vent METAR/SPECI
23:00
V
26 °C 10 km+ 10.000 ft Var Var 3 kt METAR AYPY 291300Z VRB03KT 9999 SCT030 BKN100 26/24 Q1008
22:00
V
27 °C 10 km+ 10.000 ft Var Var 3 kt METAR AYPY 291200Z VRB03KT 9999 SCT025 BKN100 27/24 Q1008
21:00
V
27 °C 10 km+ 10.000 ft Var Var 3 kt METAR AYPY 291100Z VRB03KT 9999 BKN100 27/24 Q1008
20:00
V
28 °C 10 km+ 10.000 ft Var Var 3 kt METAR AYPY 291000Z VRB03KT 9999 FEW030 BKN100 28/24 Q1007
19:00
V
28 °C 10 km+ - 290° 290° 3 kt METAR AYPY 290900Z 29003KT 9999 FEW030 SCT050 28/24 Q1006
18:00
V
29 °C 10 km+ - Var Var 4 kt METAR AYPY 290800Z VRB04KT 9999 FEW030 SCT050 29/24 Q1006
17:00
V
30 °C 10 km+ - 320° 320° 10 kt METAR AYPY 290700Z 32010KT 9999 FEW015 SCT030 30/23 Q1005
16:00
V
30 °C 10 km+ - 360° 360° 10 kt METAR AYPY 290600Z 36010KT 9999 HZ FEW015 SCT030 30/23 Q1005=
15:00
V
31 °C 10 km+ - 340° 340° 15 kt METAR AYPY 290500Z 34015KT 9999 HZ FEW020 SCT035 31/23 Q1005
14:00
V
31 °C 10 km+ - 330° 330° 15 kt METAR AYPY 290400Z 33015KT 9999 HZ FEW020 SCT035 31/24 Q1005
13:00
V
30 °C 10 km+ - 320° 320° 15 kt METAR AYPY 290300Z 32015KT 9999 HZ FEW020 SCT035 30/23 Q1007
12:00
V
29 °C 10 km+ - 330° 330° 15 - 20 kt METAR AYPY 290200Z 33015G20KT 9999 SCT025 SCT050 29/24 Q1008
11:00
V
29 °C 10 km+ 5.000 ft 340° 340° 16 kt METAR AYPY 290100Z 34016KT 9999 SCT030 BKN050 29/24 Q1009
08:00
V
26 °C 10 km+ 7.000 ft 300° 300° 10 kt METAR AYPY 282200Z 30010KT 9999 SCT030 BKN070 26/24 Q1009
07:00
V
0 °C 10 km+ - 330° 330° 10 kt METAR AYPY 282100Z 33010KT 9999 RERA SCT030 BKN070 25/23 Q1009
06:00
V
24 °C 10 km+ - 320° 320° 10 kt METAR AYPY 282000Z 32010KT 9999 SCT050 24/24 Q1008 RMK/CB TO THE SE
05:00
V
24 °C 10 km+ - 310° 310° 10 kt METAR AYPY 281900Z 31010KT 9999 FEW040 24/24 Q1007
04:00
V
25 °C 10 km+ - 300° 300° 10 kt METAR AYPY 281800Z 30010KT 9999 FEW050 25/24 Q1006
03:00
V
25 °C 10 km+ 8.000 ft 320° 320° 10 kt METAR AYPY 281700Z 32010KT 9999 BCFG FEW010 SCT030 BKN080 25/24 Q1007 RMK
02:00
V
26 °C 10 km+ - Var Var 3 kt METAR AYPY 281600Z VRB03KT 9999 SCT070 26/25 Q1007 RMK/LTG OBS TO N
01:00
V
26 °C 10 km+ - Var Var 3 kt METAR AYPY 281500Z VRB03KT 9999 SCT090 26/25 Q1007
00:00
V
26 °C 10 km+ 16.000 ft Var Var 3 kt METAR AYPY 281400Z VRB03KT 9999 BKN160 26/25 Q1008

28 novembre 2022

Temps Code Temps Temp. Vue Base cloud Vent METAR/SPECI
23:00
V
27 °C 10 km+ - Var Var 3 kt METAR AYPY 281300Z VRB03KT 9999 SCT095 27/26 Q1008
20:00
V
27 °C 10 km+ - Var Var 4 kt METAR AYPY 281000Z VRB04KT 9999 FEW035 SCT055 27/25 Q1007
18:00
V
30 °C 10 km+ - 200° 200° 10 kt METAR AYPY 280800Z 20010KT 9999 FEW030 SCT050 30/24 Q1005
17:00
V
31 °C 10 km+ - 210° 210° 10 kt METAR AYPY 280700Z 21010KT 9999 FEW030 SCT060 31/23 Q1005 RMK/CB TO E
16:00
V
31 °C 10 km+ - 260° 260° 10 kt METAR AYPY 280600Z 26010KT 9999 SCT030 SCT050 31/23 Q1004 RMK
15:00
V
32 °C 10 km+ - 230° 230° 15 kt METAR AYPY 280500Z 23015KT 9999 SCT030 SCT050 32/23 Q1004 RMK
14:00
V
34 °C 10 km+ - 230° 230° 15 kt METAR AYPY 280400Z 23015KT 9999 SCT030 SCT050 34/23 Q1005 RMK/CB FM N TO E
13:00
V
33 °C 10 km+ - 220° 220° 10 kt METAR AYPY 280300Z 22010KT 9999 SCT030 SCT050 33/23 Q1006
12:00
V
33 °C 10 km+ - 250° 250° 10 kt METAR AYPY 280200Z 25010KT 9999 SCT040 33/23 Q1007
11:00
V
31 °C 10 km+ - 350° 350° 10 kt METAR AYPY 280100Z 35010KT 9999 FEW050 31/23 Q1008
10:00
V
30 °C 10 km+ - 330° 330° 10 kt METAR AYPY 280000Z 33010KT 9999 FEW050 30/23 Q1009
09:00
V
28 °C 10 km+ - 330° 330° 8 kt METAR AYPY 272300Z 33008KT 9999 FEW050 28/23 Q1009
08:00
V
25 °C 10 km+ - 330° 330° 10 kt METAR AYPY 272200Z 33010KT 9999 FEW050 25/23 Q1009
07:00
V
23 °C 10 km+ - 310° 310° 10 kt METAR AYPY 272100Z 31010KT 9999 FEW050 23/23 Q1009
06:00
V
23 °C 10 km+ - 320° 320° 7 kt METAR AYPY 272000Z 32007KT 9999 FEW050 23/22 Q1008=
05:00
V
23 °C 10 km+ - 310° 310° 7 kt METAR AYPY 271900Z 31007KT 9999 FEW050 23/22 Q1007
04:00
V
23 °C 10 km+ - 340° 340° 5 kt METAR AYPY 271800Z 34005KT 9999 FEW050 23/22 Q1007
03:00
V
23 °C 10 km+ - Var Var 3 kt METAR AYPY 271700Z VRB03KT 9999 FEW050 23/22 Q1007
02:00
V
24 °C 10 km+ - Var Var 3 kt METAR AYPY 271600Z VRB03KT 9999 FEW050 24/23 Q1007
01:00
V
24 °C 10 km+ - Var Var 4 kt METAR AYPY 271500Z VRB04KT 9999 FEW050 24/23 Q1007
00:00
V
24 °C 10 km+ - Var Var 3 kt METAR AYPY 271400Z VRB03KT 9999 FEW050 24/23 Q1008

27 novembre 2022

Temps Code Temps Temp. Vue Base cloud Vent METAR/SPECI
23:00
V
25 °C 10 km+ - Var Var 3 kt METAR AYPY 271300Z VRB03KT 9999 SCT050 25/23 Q1009
21:00
V
25 °C 10 km+ 10.000 ft Var Var 3 kt METAR AYPY 271100Z VRB03KT 9999 FEW030 BKN100 25/23 Q1006

Nous et des tiers suivons ton comportement Internet sur notre site Web à l'aide de cookies. Si tu continues, nous supposons que tu es d'accord avec notre Politique en matière de cookies.